Saturday, April 21, 2018, 9:06 PM EDT
Back to Local

KLNS, Lancaster Airport

Location: Lititz, PA, United States Lat: 40.117
Local Time: 9:06 PM EDT ( 1:06 GMT) Lon: -76.3
Time Zone: US/Eastern Elev: 403 ft

Show me the last for .
Show Coded

Time T Td Feel RH Dir Speed Gust Alt SLP Vis Weather Sky Remarks
2018-04-21 20:53 54 29 - 38 250° 5 - 30.35 30.35 10 CLR None
2018-04-21 19:53 54 30 - 39 260° 5 - 30.33 30.34 10 CLR 6-hr Min Temp (8pm): 53.1°F
6-hr Max Temp (8pm): 57.9°F
2018-04-21 18:53 56 28 - 34 260° 8 - 30.32 30.32 10 CLR None
2018-04-21 17:53 57 29 - 34 270° 12 - 30.32 30.33 10 CLR None
2018-04-21 16:53 57 29 - 34 290° 8 - 30.33 30.33 10 CLR None
2018-04-21 15:53 57 31 - 36 300° 8 - 30.34 30.35 10 CLR None
2018-04-21 14:53 55 30 - 38 220° 7 - 30.36 30.37 10 CLR None
2018-04-21 13:53 54 30 - 39 Variable 7 - 30.39 30.39 10 CLR 6-hr Min Temp (2pm): 36.0°F
6-hr Max Temp (2pm): 54.0°F
2018-04-21 12:53 52 31 - 44 290° 8 17 30.41 30.41 10 CLR None
2018-04-21 11:53 51 29 - 42 320° 8 - 30.44 30.45 10 CLR None
2018-04-21 10:53 49 29 46 45 290° 7 - 30.46 30.47 10 CLR None
2018-04-21 09:53 46 31 43 55 290° 6 - 30.47 30.47 10 CLR None
2018-04-21 08:53 42 29 38 59 280° 7 - 30.47 30.47 10 CLR None
2018-04-21 07:53 36 29 33 75 280° 3 - 30.45 30.46 10 CLR 6-hr Min Temp (8am): 30.0°F
6-hr Max Temp (8am): 36.0°F
2018-04-21 06:53 33 26 30 75 260° 3 - 30.45 30.46 10 CLR None
2018-04-21 05:53 32 25 26 74 270° 6 - 30.44 30.45 10 CLR None
2018-04-21 04:53 32 25 27 74 250° 5 - 30.44 30.44 10 CLR None
2018-04-21 03:53 33 25 26 71 270° 8 - 30.44 30.44 10 CLR None
2018-04-21 02:53 35 25 32 66 250° 3 - 30.42 30.42 10 CLR None
2018-04-21 01:53 35 25 32 66 240° 3 - 30.42 30.42 10 CLR 6-hr Min Temp (2am): 34.0°F
6-hr Max Temp (2am): 48.0°F
2018-04-21 00:53 36 25 - 63 - Calm - 30.41 30.41 10 CLR 24-hr Min Temp (1am): 33.1°F
24-hr Max Temp (1am): 55.0°F
2018-04-20 23:53 41 24 38 50 30° 5 - 30.40 30.40 10 CLR None
2018-04-20 22:53 41 25 36 52 20° 7 - 30.38 30.39 10 CLR None
2018-04-20 21:53 42 26 38 52 40° 6 - 30.36 30.37 10 CLR None

Support USWX by starting your Amazon purchase here.